Time;durP1;ratioP1;P1;durP2;ratioP2;P2;SDS_P1;SDS_P2;PMS_P1;PMS_P2;Temp;Humidity;BMP_temperature;BMP_pressure;BME280_temperature;BME280_humidity;BME280_pressure;Samples;Min_cycle;Max_cycle;Signal;HPM_P1;HPM_P2
2022/02/26 00:01:14;;;;;;;5.83;3.20;;;10.50;52.70;;;;;;5041297;28;20193;-48
2022/02/26 00:03:40;;;;;;;3.67;2.87;;;10.50;52.90;;;;;;5048482;28;20659;-50
2022/02/26 00:06:06;;;;;;;6.50;2.77;;;10.60;52.80;;;;;;5046344;28;20208;-46
2022/02/26 00:08:32;;;;;;;6.03;3.30;;;10.60;52.60;;;;;;5041345;28;20197;-45
2022/02/26 00:10:58;;;;;;;5.20;2.60;;;10.70;52.40;;;;;;5045425;28;20945;-48
2022/02/26 00:13:26;;;;;;;3.23;2.90;;;10.70;52.20;;;;;;5045635;28;20192;-45
2022/02/26 00:15:52;;;;;;;4.90;2.87;;;10.80;52.20;;;;;;5042882;28;20223;-45
2022/02/26 00:18:18;;;;;;;5.60;3.20;;;10.90;52.10;;;;;;5040523;28;20431;-46
2022/02/26 00:20:43;;;;;;;5.80;3.10;;;10.90;52.10;;;;;;5047107;28;20286;-46
2022/02/26 00:23:09;;;;;;;5.50;4.60;;;10.90;51.90;;;;;;5036828;28;20193;-45
2022/02/26 00:25:34;;;;;;;5.80;3.00;;;11.00;51.80;;;;;;5045210;28;20672;-45
2022/02/26 00:28:00;;;;;;;5.80;3.00;;;11.00;51.60;;;;;;5042428;28;20294;-47
2022/02/26 00:30:26;;;;;;;5.60;3.70;;;11.10;51.60;;;;;;5049082;28;20203;-47
2022/02/26 00:32:51;;;;;;;4.63;3.10;;;11.20;51.50;;;;;;5043549;28;20652;-46
2022/02/26 00:35:17;;;;;;;4.60;2.97;;;11.10;51.40;;;;;;5048252;28;20246;-45
2022/02/26 00:37:43;;;;;;;4.83;3.13;;;11.10;51.30;;;;;;5047897;28;20200;-45
2022/02/26 00:40:09;;;;;;;4.50;2.93;;;11.00;51.40;;;;;;5050841;28;20208;-48
2022/02/26 00:42:35;;;;;;;9.17;3.17;;;11.00;51.60;;;;;;5052502;28;20307;-45
2022/02/26 00:45:01;;;;;;;3.63;2.80;;;10.90;51.50;;;;;;5052667;28;20526;-46
2022/02/26 00:47:27;;;;;;;6.37;2.97;;;11.00;51.50;;;;;;5043503;28;20664;-49
2022/02/26 00:49:53;;;;;;;5.33;3.00;;;11.00;51.30;;;;;;5047667;28;20196;-50
2022/02/26 00:52:21;;;;;;;5.03;2.90;;;10.90;51.50;;;;;;5053331;28;20827;-45
2022/02/26 00:54:47;;;;;;;4.27;2.40;;;10.90;51.70;;;;;;5052705;28;20250;-45
2022/02/26 00:57:13;;;;;;;3.70;2.77;;;10.90;51.90;;;;;;5051857;28;20483;-45
2022/02/26 00:59:39;;;;;;;4.10;2.13;;;10.90;51.70;;;;;;5049018;28;20274;-45
2022/02/26 01:02:06;;;;;;;4.87;3.07;;;10.90;51.80;;;;;;5049366;28;20470;-46
2022/02/26 01:04:33;;;;;;;4.87;2.67;;;10.80;51.90;;;;;;5047823;28;20427;-50
2022/02/26 01:07:04;;;;;;;6.47;2.83;;;10.70;52.10;;;;;;5045218;28;20470;-51
2022/02/26 01:09:30;;;;;;;3.73;2.87;;;10.40;52.50;;;;;;5018585;28;20514;-50
2022/02/26 01:11:55;;;;;;;3.60;2.83;;;10.20;52.90;;;;;;5043979;28;21147;-48
2022/02/26 01:14:25;;;;;;;4.60;3.10;;;10.30;53.00;;;;;;5047307;28;20203;-51
2022/02/26 01:16:51;;;;;;;10.17;3.33;;;10.40;53.00;;;;;;5034909;28;20227;-44
2022/02/26 01:19:17;;;;;;;6.33;2.83;;;10.40;52.90;;;;;;5039200;28;20740;-45
2022/02/26 01:21:43;;;;;;;6.47;3.03;;;10.40;52.80;;;;;;5040079;28;20189;-45
2022/02/26 01:24:10;;;;;;;4.07;2.60;;;10.50;52.80;;;;;;5035288;28;20478;-44
2022/02/26 01:26:35;;;;;;;4.17;2.90;;;10.50;52.70;;;;;;5050215;28;20938;-44
2022/02/26 01:29:03;;;;;;;7.03;2.70;;;10.30;52.70;;;;;;5041619;28;20443;-44
2022/02/26 01:31:29;;;;;;;4.93;2.73;;;10.20;53.00;;;;;;5041474;28;20196;-44
2022/02/26 01:33:55;;;;;;;4.63;2.30;;;10.20;53.20;;;;;;5039611;28;20452;-44
2022/02/26 01:36:21;;;;;;;5.97;3.00;;;10.10;53.40;;;;;;5046945;28;20490;-43
2022/02/26 01:38:46;;;;;;;3.97;2.70;;;10.10;53.40;;;;;;5049765;28;20446;-44
2022/02/26 01:41:12;;;;;;;6.23;4.03;;;10.10;53.30;;;;;;5048480;28;20208;-44
2022/02/26 01:43:37;;;;;;;4.83;2.50;;;10.10;53.40;;;;;;5048735;28;20243;-44
2022/02/26 01:46:06;;;;;;;3.87;2.50;;;10.20;53.30;;;;;;5050329;28;20196;-45
2022/02/26 01:48:33;;;;;;;4.87;3.70;;;10.10;53.40;;;;;;5046499;28;20201;-45
2022/02/26 01:50:59;;;;;;;4.80;2.70;;;10.10;53.50;;;;;;5044445;28;20446;-44
2022/02/26 01:53:24;;;;;;;9.30;3.63;;;10.10;53.60;;;;;;5044176;28;20443;-48
2022/02/26 01:55:51;;;;;;;6.90;2.87;;;9.90;54.70;;;;;;5048907;28;20961;-46
2022/02/26 01:58:17;;;;;;;5.77;3.03;;;9.90;54.80;;;;;;5046767;28;20200;-46
2022/02/26 02:00:42;;;;;;;2.70;2.47;;;10.00;53.60;;;;;;5042400;28;20435;-46
2022/02/26 02:03:08;;;;;;;3.30;2.77;;;10.00;53.30;;;;;;5043517;28;20439;-45
2022/02/26 02:05:34;;;;;;;3.90;2.70;;;10.10;53.20;;;;;;5050376;28;20204;-50
2022/02/26 02:08:00;;;;;;;6.10;2.87;;;10.20;53.00;;;;;;5045847;28;20443;-45
2022/02/26 02:10:26;;;;;;;7.07;3.10;;;10.20;52.60;;;;;;5048718;28;20224;-48
2022/02/26 02:12:51;;;;;;;3.70;3.00;;;10.20;52.70;;;;;;5043820;28;20254;-45
2022/02/26 02:15:34;;;;;;;3.57;2.93;;;10.20;52.60;;;;;;5049166;28;20953;-45
2022/02/26 02:18:00;;;;;;;7.67;3.23;;;10.10;52.70;;;;;;5038927;28;20190;-46
2022/02/26 02:20:26;;;;;;;7.37;3.40;;;10.10;52.90;;;;;;5042377;28;20520;-44
2022/02/26 02:22:51;;;;;;;5.83;3.40;;;10.20;52.90;;;;;;5047770;28;20427;-46
2022/02/26 02:25:17;;;;;;;6.00;3.03;;;10.20;52.70;;;;;;5050987;28;20709;-45
2022/02/26 02:27:43;;;;;;;5.60;2.93;;;10.30;52.50;;;;;;5040747;28;20197;-44
2022/02/26 02:30:10;;;;;;;4.83;3.03;;;10.40;52.50;;;;;;5045891;28;20518;-44
2022/02/26 02:32:36;;;;;;;6.63;3.30;;;10.40;52.10;;;;;;5035613;28;20193;-46
2022/02/26 02:35:02;;;;;;;5.57;3.23;;;10.60;52.10;;;;;;5044573;28;20768;-47
2022/02/26 02:37:27;;;;;;;4.90;3.27;;;10.60;51.70;;;;;;5049228;28;20224;-45
2022/02/26 02:39:53;;;;;;;6.10;3.10;;;10.70;51.40;;;;;;5050605;28;20977;-46
2022/02/26 02:42:19;;;;;;;5.17;3.23;;;10.80;51.30;;;;;;5046799;28;20275;-48
2022/02/26 02:44:44;;;;;;;4.83;2.97;;;10.90;50.90;;;;;;5038462;28;20610;-44
2022/02/26 02:47:10;;;;;;;7.70;3.30;;;10.90;50.70;;;;;;5049270;28;20582;-43
2022/02/26 02:49:36;;;;;;;4.37;3.20;;;10.90;50.60;;;;;;5048936;28;20226;-45
2022/02/26 02:52:02;;;;;;;5.57;3.67;;;10.80;50.60;;;;;;5046412;28;20335;-47
2022/02/26 02:54:28;;;;;;;8.83;3.43;;;10.80;50.70;;;;;;5049401;28;20518;-44
2022/02/26 02:56:53;;;;;;;6.07;4.03;;;10.80;50.70;;;;;;5045997;28;20232;-43
2022/02/26 02:59:19;;;;;;;5.97;3.00;;;10.80;50.70;;;;;;5044865;28;20279;-43
2022/02/26 03:01:44;;;;;;;4.23;3.00;;;10.80;50.80;;;;;;5045021;28;20197;-43
2022/02/26 03:04:10;;;;;;;4.60;2.90;;;10.70;50.80;;;;;;5039609;28;20199;-45
2022/02/26 03:06:36;;;;;;;6.50;3.53;;;10.70;51.00;;;;;;5046510;28;20224;-45
2022/02/26 03:09:02;;;;;;;5.97;3.20;;;10.60;51.20;;;;;;5043355;28;20198;-47
2022/02/26 03:11:28;;;;;;;9.23;3.93;;;10.70;51.20;;;;;;5043896;28;20205;-46
2022/02/26 03:13:54;;;;;;;4.30;3.40;;;10.70;51.30;;;;;;5037077;28;22332;-46
2022/02/26 03:16:19;;;;;;;6.07;3.97;;;10.70;51.20;;;;;;5039289;28;20256;-46
2022/02/26 03:18:45;;;;;;;4.50;3.57;;;10.80;51.30;;;;;;5038801;28;20261;-45
2022/02/26 03:21:11;;;;;;;8.00;3.50;;;10.90;51.20;;;;;;5044836;28;20193;-45
2022/02/26 03:23:36;;;;;;;7.97;3.50;;;11.00;51.00;;;;;;5048788;28;20624;-44
2022/02/26 03:26:03;;;;;;;4.50;3.57;;;11.10;50.80;;;;;;5041108;28;20276;-44
2022/02/26 03:28:28;;;;;;;5.00;3.33;;;11.20;50.40;;;;;;5037318;28;20211;-46
2022/02/26 03:30:54;;;;;;;3.77;2.77;;;11.20;50.70;;;;;;5040925;28;20429;-45
2022/02/26 03:33:19;;;;;;;7.23;3.90;;;11.20;50.30;;;;;;5042626;28;20584;-43
2022/02/26 03:35:45;;;;;;;7.27;3.37;;;11.30;50.00;;;;;;5040971;28;20281;-46
2022/02/26 03:38:11;;;;;;;4.70;2.93;;;11.40;50.10;;;;;;5036789;28;20188;-45
2022/02/26 03:40:37;;;;;;;4.67;2.73;;;11.40;49.70;;;;;;5044499;28;20271;-44
2022/02/26 03:43:03;;;;;;;7.03;3.67;;;11.50;49.60;;;;;;5048039;28;20662;-47
2022/02/26 03:45:29;;;;;;;5.37;3.10;;;11.50;49.60;;;;;;5042741;28;20443;-45
2022/02/26 03:47:55;;;;;;;8.47;4.23;;;11.50;49.30;;;;;;5041437;28;20485;-44
2022/02/26 03:50:20;;;;;;;5.77;3.10;;;11.40;49.10;;;;;;5036397;28;20440;-47
2022/02/26 03:52:46;;;;;;;9.73;3.77;;;11.20;49.30;;;;;;5040074;28;20291;-48
2022/02/26 03:55:12;;;;;;;6.07;3.23;;;11.10;49.60;;;;;;5035583;28;20205;-44
2022/02/26 03:57:38;;;;;;;4.90;3.43;;;10.90;50.10;;;;;;5040336;28;20240;-47
2022/02/26 04:00:06;;;;;;;5.07;3.23;;;10.80;50.40;;;;;;5045298;28;20885;-45
2022/02/26 04:02:31;;;;;;;4.97;3.37;;;10.60;50.60;;;;;;5039531;28;20197;-46
2022/02/26 04:04:57;;;;;;;5.33;4.10;;;10.50;50.90;;;;;;5034732;28;20871;-50
2022/02/26 04:07:23;;;;;;;8.27;4.47;;;10.40;51.10;;;;;;5044938;28;20196;-47
2022/02/26 04:09:48;;;;;;;8.33;3.83;;;10.30;51.60;;;;;;5047155;28;20227;-44
2022/02/26 04:12:16;;;;;;;8.70;4.43;;;10.10;52.10;;;;;;5046077;28;20580;-49
2022/02/26 04:14:42;;;;;;;6.53;3.97;;;10.00;52.20;;;;;;5038515;28;20599;-49
2022/02/26 04:17:08;;;;;;;5.33;4.00;;;10.00;52.30;;;;;;5044515;28;20536;-44
2022/02/26 04:19:33;;;;;;;7.43;3.83;;;10.00;52.40;;;;;;5036927;28;20440;-44
2022/02/26 04:21:59;;;;;;;6.03;4.67;;;10.00;52.40;;;;;;5043988;28;20193;-48
2022/02/26 04:24:25;;;;;;;7.97;4.97;;;10.00;52.30;;;;;;5035932;28;20199;-47
2022/02/26 04:26:51;;;;;;;7.10;4.67;;;10.00;52.20;;;;;;5037302;28;20557;-46
2022/02/26 04:29:17;;;;;;;4.83;3.83;;;10.00;52.30;;;;;;5041680;28;20439;-48
2022/02/26 04:31:42;;;;;;;5.80;4.27;;;9.90;53.20;;;;;;5040318;28;20184;-48
2022/02/26 04:34:08;;;;;;;6.60;3.93;;;9.90;53.30;;;;;;5038460;28;20204;-45
2022/02/26 04:36:34;;;;;;;4.50;4.10;;;9.80;53.30;;;;;;5036242;28;20268;-45
2022/02/26 04:39:00;;;;;;;5.63;4.30;;;9.80;53.50;;;;;;5040352;28;20192;-44
2022/02/26 04:41:25;;;;;;;6.80;4.57;;;9.70;53.50;;;;;;5045166;28;20588;-50
2022/02/26 04:43:51;;;;;;;6.20;4.30;;;9.70;53.60;;;;;;5044347;28;20629;-45
2022/02/26 04:46:17;;;;;;;10.53;5.37;;;9.70;53.60;;;;;;5038638;28;20227;-47
2022/02/26 04:48:42;;;;;;;7.97;4.10;;;9.60;53.70;;;;;;5040728;28;20443;-44
2022/02/26 04:51:08;;;;;;;9.10;4.63;;;9.60;53.80;;;;;;5039535;28;20196;-44
2022/02/26 04:53:35;;;;;;;7.10;4.73;;;9.60;53.90;;;;;;5044870;28;20188;-47
2022/02/26 04:56:02;;;;;;;8.20;5.00;;;9.60;54.00;;;;;;5037531;28;20521;-44
2022/02/26 04:58:27;;;;;;;6.00;5.07;;;9.60;54.10;;;;;;5043943;28;20450;-49
2022/02/26 05:00:53;;;;;;;6.17;4.20;;;9.60;54.20;;;;;;5039743;28;20447;-49
2022/02/26 05:03:19;;;;;;;9.27;4.50;;;9.60;54.20;;;;;;5041166;28;20530;-46
2022/02/26 05:05:45;;;;;;;7.30;4.90;;;9.60;54.20;;;;;;5040315;28;20698;-44
2022/02/26 05:08:10;;;;;;;6.90;4.63;;;9.50;54.10;;;;;;5039505;28;20194;-45
2022/02/26 05:10:36;;;;;;;8.07;4.90;;;9.50;54.00;;;;;;5038698;28;20211;-47
2022/02/26 05:13:01;;;;;;;5.67;4.30;;;9.50;54.70;;;;;;5041167;28;20189;-46
2022/02/26 05:15:27;;;;;;;14.63;5.20;;;9.50;54.20;;;;;;5035801;28;20259;-49
2022/02/26 05:17:53;;;;;;;9.40;4.57;;;9.40;54.40;;;;;;5040682;28;20564;-45
2022/02/26 05:20:18;;;;;;;13.27;5.63;;;9.40;54.60;;;;;;5045559;28;20234;-46
2022/02/26 05:22:44;;;;;;;7.13;4.57;;;9.40;54.70;;;;;;5036638;28;20404;-46
2022/02/26 05:25:10;;;;;;;9.77;5.37;;;9.30;54.70;;;;;;5041231;28;20232;-46
2022/02/26 05:27:37;;;;;;;6.93;4.80;;;9.40;55.00;;;;;;5041471;28;20198;-45
2022/02/26 05:30:05;;;;;;;8.50;5.50;;;9.30;54.90;;;;;;5040186;28;20518;-46
2022/02/26 05:32:30;;;;;;;10.50;5.87;;;9.40;55.00;;;;;;5042628;28;20435;-47
2022/02/26 05:34:56;;;;;;;9.83;5.33;;;9.40;54.80;;;;;;5043621;28;20439;-44
2022/02/26 05:37:23;;;;;;;11.30;5.33;;;9.40;54.90;;;;;;5039691;28;20243;-47
2022/02/26 05:39:48;;;;;;;13.20;6.40;;;9.40;54.60;;;;;;5037537;28;20457;-48
2022/02/26 05:42:17;;;;;;;12.23;4.80;;;9.40;54.70;;;;;;5039236;28;20877;-45
2022/02/26 05:44:43;;;;;;;7.47;4.90;;;9.40;54.70;;;;;;5045260;28;20267;-46
2022/02/26 05:47:09;;;;;;;9.40;5.70;;;9.40;54.60;;;;;;5048004;28;20592;-47
2022/02/26 05:49:35;;;;;;;9.03;6.00;;;9.40;54.60;;;;;;5040481;28;20442;-47
2022/02/26 05:52:01;;;;;;;14.70;5.70;;;9.40;54.60;;;;;;5041870;28;20524;-46
2022/02/26 05:54:26;;;;;;;9.80;5.07;;;9.40;54.60;;;;;;5043764;28;20528;-47
2022/02/26 05:56:52;;;;;;;8.43;4.97;;;9.40;54.50;;;;;;5047786;28;20597;-44
2022/02/26 05:59:17;;;;;;;10.93;6.10;;;9.30;54.50;;;;;;5040163;28;20200;-45
2022/02/26 06:01:44;;;;;;;9.93;6.50;;;9.30;54.70;;;;;;5048453;28;20193;-47
2022/02/26 06:04:10;;;;;;;11.50;6.57;;;9.40;54.80;;;;;;5050323;28;20220;-44
2022/02/26 06:06:35;;;;;;;9.13;6.33;;;9.30;54.90;;;;;;5038236;28;20577;-45
2022/02/26 06:09:02;;;;;;;10.20;6.53;;;9.30;54.90;;;;;;5041981;28;20199;-45
2022/02/26 06:11:27;;;;;;;25.40;6.87;;;9.30;54.90;;;;;;5046279;28;20457;-47
2022/02/26 06:13:53;;;;;;;10.30;6.83;;;9.40;55.00;;;;;;5040909;28;20505;-47
2022/02/26 06:16:19;;;;;;;11.30;7.40;;;9.40;54.90;;;;;;5042198;28;20232;-45
2022/02/26 06:18:45;;;;;;;8.80;6.50;;;9.40;54.90;;;;;;5038401;28;20236;-45
2022/02/26 06:21:10;;;;;;;9.50;6.47;;;9.40;55.00;;;;;;5040700;28;20850;-46
2022/02/26 06:23:36;;;;;;;6.67;5.67;;;9.50;55.50;;;;;;5039682;28;20242;-46
2022/02/26 06:26:02;;;;;;;8.50;5.90;;;9.60;55.30;;;;;;5044992;28;20201;-45
2022/02/26 06:28:27;;;;;;;9.40;6.03;;;9.80;55.10;;;;;;5045598;28;20277;-47
2022/02/26 06:30:53;;;;;;;14.20;8.00;;;10.00;54.10;;;;;;5037477;28;20185;-46
2022/02/26 06:33:18;;;;;;;12.00;7.47;;;10.10;53.00;;;;;;5048490;28;20254;-46
2022/02/26 06:35:44;;;;;;;12.13;7.10;;;10.30;53.00;;;;;;5046635;28;20724;-45
2022/02/26 06:38:10;;;;;;;9.20;6.80;;;10.40;52.70;;;;;;5044696;28;20769;-45
2022/02/26 06:40:36;;;;;;;8.17;6.47;;;10.60;52.30;;;;;;5044279;28;20287;-45
2022/02/26 06:43:03;;;;;;;11.53;6.03;;;10.70;52.10;;;;;;5046070;28;20893;-46
2022/02/26 06:45:29;;;;;;;12.40;8.00;;;10.80;51.80;;;;;;5048541;28;20441;-46
2022/02/26 06:47:54;;;;;;;8.27;6.33;;;10.90;51.40;;;;;;5047673;28;20435;-45
2022/02/26 06:50:20;;;;;;;9.53;7.20;;;11.00;51.10;;;;;;5046697;28;20228;-44
2022/02/26 06:52:46;;;;;;;8.10;6.47;;;11.00;50.90;;;;;;5048765;28;20512;-45
2022/02/26 06:55:11;;;;;;;9.37;6.40;;;11.10;50.80;;;;;;5051254;28;20204;-46
2022/02/26 06:57:37;;;;;;;7.83;6.30;;;11.10;50.60;;;;;;5049954;28;20319;-45
2022/02/26 07:00:05;;;;;;;7.83;6.30;;;11.20;50.50;;;;;;5044383;28;20275;-45
2022/02/26 07:02:31;;;;;;;14.30;8.53;;;11.20;50.40;;;;;;5049083;28;20208;-46
2022/02/26 07:04:57;;;;;;;8.63;7.70;;;11.10;50.30;;;;;;5042826;28;20435;-46
2022/02/26 07:07:23;;;;;;;18.67;6.93;;;11.10;50.50;;;;;;5039866;28;20443;-46
2022/02/26 07:09:49;;;;;;;10.50;6.27;;;11.00;50.60;;;;;;5021023;28;20665;-45
2022/02/26 07:12:16;;;;;;;13.20;6.77;;;10.90;50.90;;;;;;5041910;28;20200;-47
2022/02/26 07:14:42;;;;;;;13.67;6.60;;;10.90;51.20;;;;;;5043943;28;20200;-47
2022/02/26 07:17:07;;;;;;;13.13;6.97;;;10.90;51.00;;;;;;5045160;28;20490;-44
2022/02/26 07:19:33;;;;;;;9.90;6.47;;;10.90;51.00;;;;;;5040861;28;20285;-47
2022/02/26 07:21:59;;;;;;;10.23;6.93;;;10.80;51.20;;;;;;5045499;28;20648;-49
2022/02/26 07:24:26;;;;;;;9.57;6.50;;;10.70;51.70;;;;;;5049207;28;20674;-47
2022/02/26 07:26:51;;;;;;;10.40;6.30;;;10.60;51.70;;;;;;5043011;28;20829;-49
2022/02/26 07:29:17;;;;;;;12.63;6.60;;;10.60;51.90;;;;;;5043840;28;20557;-48
2022/02/26 07:31:42;;;;;;;11.13;6.67;;;10.60;52.00;;;;;;5045764;28;20196;-51
2022/02/26 07:34:08;;;;;;;14.00;6.90;;;10.50;52.10;;;;;;5043920;28;20649;-49
2022/02/26 07:36:34;;;;;;;10.90;7.00;;;10.50;52.00;;;;;;5048286;28;20224;-45
2022/02/26 07:39:01;;;;;;;11.93;7.40;;;10.50;52.10;;;;;;5049873;28;20185;-45
2022/02/26 07:41:26;;;;;;;10.67;7.03;;;10.50;52.10;;;;;;5044516;28;20799;-50
2022/02/26 07:43:52;;;;;;;16.73;7.47;;;10.50;51.90;;;;;;5045771;28;20472;-44
2022/02/26 07:46:17;;;;;;;13.90;7.90;;;10.60;52.00;;;;;;5031176;28;20192;-47
2022/02/26 07:48:44;;;;;;;22.20;8.43;;;10.50;51.90;;;;;;5028274;28;20620;-44
2022/02/26 07:51:10;;;;;;;9.03;7.20;;;10.50;51.80;;;;;;5030443;28;20428;-45
2022/02/26 07:53:36;;;;;;;11.70;7.20;;;10.50;51.60;;;;;;5030340;28;20227;-44
2022/02/26 07:56:03;;;;;;;14.73;7.47;;;10.40;51.70;;;;;;5030795;28;20239;-44
2022/02/26 07:58:28;;;;;;;10.13;7.03;;;10.40;51.80;;;;;;5030161;28;20436;-48
2022/02/26 08:00:54;;;;;;;12.63;9.07;;;10.40;51.90;;;;;;5030253;28;20454;-44
2022/02/26 08:03:20;;;;;;;23.83;12.27;;;10.50;52.00;;;;;;5030318;28;20186;-44
2022/02/26 08:05:45;;;;;;;15.73;11.20;;;10.50;52.00;;;;;;5030815;28;20196;-45
2022/02/26 08:08:11;;;;;;;15.93;10.10;;;10.50;51.90;;;;;;5030027;28;20252;-48
2022/02/26 08:10:36;;;;;;;10.10;8.27;;;10.60;52.00;;;;;;5030037;28;20193;-45
2022/02/26 08:13:03;;;;;;;12.93;7.17;;;10.60;52.00;;;;;;5030025;28;20247;-45
2022/02/26 08:15:28;;;;;;;11.13;7.27;;;10.60;52.10;;;;;;5029103;28;20205;-44
2022/02/26 08:17:55;;;;;;;17.30;8.00;;;10.60;52.00;;;;;;5030021;28;20432;-47
2022/02/26 08:20:24;;;;;;;14.83;8.73;;;10.60;52.00;;;;;;5029826;28;20193;-44
2022/02/26 08:22:51;;;;;;;14.70;7.83;;;10.70;52.00;;;;;;5029819;28;20432;-47
2022/02/26 08:25:17;;;;;;;10.90;7.50;;;10.70;51.80;;;;;;5030368;28;20804;-45
2022/02/26 08:27:43;;;;;;;14.73;8.40;;;10.80;51.60;;;;;;5029820;28;20488;-45
2022/02/26 08:30:12;;;;;;;13.50;7.90;;;10.80;51.50;;;;;;5030026;28;20238;-46
2022/02/26 08:32:40;;;;;;;11.70;7.70;;;10.90;51.50;;;;;;5042939;28;20782;-47
2022/02/26 08:35:08;;;;;;;12.67;7.40;;;10.90;51.40;;;;;;5030858;28;20428;-46
2022/02/26 08:37:34;;;;;;;8.57;6.80;;;10.90;51.20;;;;;;5029771;28;20498;-44
2022/02/26 08:39:59;;;;;;;10.00;7.70;;;11.00;51.30;;;;;;5032032;28;20428;-47
2022/02/26 08:42:25;;;;;;;9.87;7.50;;;11.10;51.20;;;;;;5048275;28;20519;-48
2022/02/26 08:44:52;;;;;;;9.87;7.47;;;11.10;50.80;;;;;;5037172;28;20192;-45
2022/02/26 08:47:19;;;;;;;10.30;7.40;;;11.20;50.60;;;;;;5030204;28;20201;-48
2022/02/26 08:49:46;;;;;;;11.30;7.10;;;11.20;50.70;;;;;;5029359;28;20435;-48
2022/02/26 08:52:11;;;;;;;12.33;7.40;;;11.30;50.30;;;;;;5029971;28;20431;-46
2022/02/26 08:54:37;;;;;;;10.70;7.70;;;11.30;50.10;;;;;;5029502;28;20796;-47
2022/02/26 08:57:03;;;;;;;10.90;8.27;;;11.30;50.00;;;;;;5029973;28;20228;-45
2022/02/26 08:59:30;;;;;;;15.50;8.30;;;11.40;49.80;;;;;;5029217;28;20208;-45
2022/02/26 09:01:56;;;;;;;11.87;7.73;;;11.40;49.60;;;;;;5033442;28;20804;-45
2022/02/26 09:04:22;;;;;;;13.80;7.53;;;11.50;49.50;;;;;;5033470;28;20431;-46
2022/02/26 09:06:48;;;;;;;16.67;8.53;;;11.50;49.40;;;;;;5033726;28;20435;-44
2022/02/26 09:09:13;;;;;;;11.30;7.70;;;11.60;49.50;;;;;;5032214;28;20201;-45
2022/02/26 09:11:41;;;;;;;10.03;6.20;;;11.70;49.50;;;;;;5033151;28;20198;-47
2022/02/26 09:14:07;;;;;;;10.53;6.90;;;11.80;49.10;;;;;;5033149;28;20185;-46
2022/02/26 09:16:33;;;;;;;9.83;6.83;;;11.80;48.50;;;;;;5033353;28;20582;-44
2022/02/26 09:18:59;;;;;;;11.43;6.53;;;11.80;47.70;;;;;;5032850;28;20530;-47
2022/02/26 09:21:25;;;;;;;9.80;6.87;;;11.80;47.50;;;;;;5033821;28;20189;-45
2022/02/26 09:23:50;;;;;;;15.13;7.30;;;11.80;47.40;;;;;;5032985;28;20428;-46
2022/02/26 09:26:16;;;;;;;11.10;6.33;;;11.80;47.60;;;;;;5033332;28;20201;-45
2022/02/26 09:28:42;;;;;;;9.43;6.83;;;11.80;47.90;;;;;;5032421;28;20579;-45
2022/02/26 09:31:10;;;;;;;9.87;5.90;;;11.80;48.00;;;;;;5039243;28;20188;-44
2022/02/26 09:33:37;;;;;;;13.47;6.33;;;11.70;48.40;;;;;;5039873;28;20189;-44
2022/02/26 09:36:05;;;;;;;12.67;6.23;;;11.70;48.30;;;;;;5033225;28;20502;-46
2022/02/26 09:38:31;;;;;;;9.43;6.23;;;11.70;47.50;;;;;;5030924;28;20418;-46
2022/02/26 09:40:59;;;;;;;14.00;7.43;;;11.70;47.10;;;;;;5042490;28;20423;-46
2022/02/26 09:43:26;;;;;;;12.60;6.10;;;11.60;47.40;;;;;;5051849;28;20471;-45
2022/02/26 09:45:53;;;;;;;11.10;7.10;;;11.60;47.30;;;;;;5033328;28;20424;-45
2022/02/26 09:48:20;;;;;;;7.70;4.67;;;11.70;46.10;;;;;;5032567;28;20490;-45
2022/02/26 09:50:45;;;;;;;11.83;5.43;;;11.80;44.90;;;;;;5032928;28;20467;-45
2022/02/26 09:53:12;;;;;;;11.23;4.63;;;11.80;44.60;;;;;;5032471;28;20866;-44
2022/02/26 09:55:39;;;;;;;7.30;3.80;;;11.90;44.60;;;;;;5033406;28;20224;-45
2022/02/26 09:58:05;;;;;;;11.17;4.17;;;12.10;44.20;;;;;;5032709;28;20452;-44
2022/02/26 10:00:31;;;;;;;4.70;3.40;;;12.10;43.20;;;;;;5032371;28;20486;-46
2022/02/26 10:02:57;;;;;;;14.10;4.70;;;12.20;42.80;;;;;;5032305;28;20424;-44
2022/02/26 10:05:23;;;;;;;7.43;4.70;;;12.10;42.30;;;;;;5031500;28;20551;-44
2022/02/26 10:07:52;;;;;;;10.60;4.10;;;12.10;42.60;;;;;;5031938;28;20205;-45
2022/02/26 10:10:27;;;;;;;8.63;4.70;;;12.10;42.40;;;;;;5032188;28;20210;-45
2022/02/26 10:13:00;;;;;;;12.73;8.67;;;12.20;43.10;;;;;;5031695;28;20446;-45
2022/02/26 10:15:28;;;;;;;7.20;4.30;;;12.30;43.60;;;;;;5032696;28;20424;-48
2022/02/26 10:18:11;;;;;;;7.37;4.47;;;12.40;43.30;;;;;;5032080;28;20479;-50
2022/02/26 10:20:54;;;;;;;9.50;4.80;;;12.40;43.20;;;;;;5032041;28;20514;-51
2022/02/26 10:23:22;;;;;;;11.07;5.90;;;12.50;42.70;;;;;;5032103;28;20442;-46
2022/02/26 10:25:48;;;;;;;9.63;4.40;;;12.50;42.90;;;;;;5032508;28;21167;-47
2022/02/26 10:28:15;;;;;;;10.20;5.00;;;12.40;43.30;;;;;;5032133;28;20498;-45
2022/02/26 10:30:42;;;;;;;8.10;4.50;;;12.50;43.10;;;;;;5030661;28;20428;-51
2022/02/26 10:33:23;;;;;;;9.73;5.00;;;12.60;42.30;;;;;;5031444;28;20531;-51
2022/02/26 10:35:54;;;;;;;12.10;3.10;;;12.80;42.70;;;;;;5032423;28;20467;-50
2022/02/26 10:38:32;;;;;;;6.77;3.30;;;13.10;41.60;;;;;;5031743;28;20479;-45
2022/02/26 10:41:09;;;;;;;4.50;2.93;;;13.20;41.50;;;;;;5041365;28;20438;-45
2022/02/26 10:43:53;;;;;;;6.43;3.53;;;13.50;38.80;;;;;;5049197;28;20989;-45
2022/02/26 10:46:28;;;;;;;5.43;3.63;;;13.50;37.60;;;;;;5032088;28;20440;-49
2022/02/26 10:48:59;;;;;;;9.80;5.00;;;13.70;38.90;;;;;;5031112;28;20748;-47
2022/02/26 10:51:30;;;;;;;8.17;4.10;;;13.80;38.10;;;;;;5032325;28;20447;-46
2022/02/26 10:53:57;;;;;;;7.73;2.87;;;13.90;37.00;;;;;;5031491;28;20463;-46
2022/02/26 10:56:37;;;;;;;10.17;2.80;;;13.90;36.80;;;;;;5031807;28;20487;-46
2022/02/26 10:59:04;;;;;;;3.80;2.20;;;14.10;35.20;;;;;;5029216;28;20435;-45
2022/02/26 11:01:31;;;;;;;6.17;2.00;;;14.20;33.80;;;;;;5031321;28;20935;-47
2022/02/26 11:03:57;;;;;;;8.23;2.10;;;14.30;33.20;;;;;;5031244;28;20420;-48
2022/02/26 11:06:24;;;;;;;3.80;2.00;;;14.50;33.10;;;;;;5031794;28;20443;-45
2022/02/26 11:08:51;;;;;;;7.20;2.10;;;14.70;33.20;;;;;;5030793;28;20793;-46
2022/02/26 11:11:18;;;;;;;4.13;1.80;;;14.70;34.40;;;;;;5031486;28;20974;-49
2022/02/26 11:13:44;;;;;;;7.77;2.60;;;14.50;32.90;;;;;;5031077;28;20420;-46
2022/02/26 11:16:13;;;;;;;8.20;2.10;;;14.40;32.20;;;;;;5031274;28;20971;-46
2022/02/26 11:18:41;;;;;;;3.90;1.60;;;14.60;31.60;;;;;;5030292;28;20943;-45
2022/02/26 11:21:09;;;;;;;5.87;1.93;;;14.60;31.30;;;;;;5031217;28;20482;-45
2022/02/26 11:23:38;;;;;;;8.13;2.17;;;14.70;32.40;;;;;;5030412;28;20515;-47
2022/02/26 11:26:04;;;;;;;3.73;2.10;;;14.70;31.50;;;;;;5029893;28;20443;-48
2022/02/26 11:28:32;;;;;;;5.80;2.50;;;14.80;31.20;;;;;;5030514;28;20815;-46
2022/02/26 11:31:00;;;;;;;11.60;2.90;;;14.70;31.60;;;;;;5031520;28;20469;-48
2022/02/26 11:33:27;;;;;;;6.83;2.30;;;14.80;32.70;;;;;;5030743;28;20500;-45
2022/02/26 11:36:04;;;;;;;11.10;5.60;;;15.00;33.50;;;;;;5031433;28;20807;-48
2022/02/26 11:38:34;;;;;;;12.53;7.97;;;15.10;33.20;;;;;;5029946;28;20493;-46
2022/02/26 11:41:47;;;;;;;9.60;4.20;;;15.10;32.10;;;;;;5031270;28;20416;-49
2022/02/26 11:44:13;;;;;;;5.20;3.77;;;15.10;32.40;;;;;;5026733;28;20460;-48
2022/02/26 11:46:39;;;;;;;4.97;2.60;;;14.70;33.20;;;;;;5031205;28;20432;-50
2022/02/26 11:49:34;;;;;;;4.70;2.67;;;14.50;34.10;;;;;;5030453;28;20239;-46
2022/02/26 11:51:59;;;;;;;6.03;3.17;;;14.40;34.30;;;;;;5028137;28;20448;-48
2022/02/26 11:54:29;;;;;;;12.20;3.80;;;14.60;34.10;;;;;;5030126;28;20435;-49
2022/02/26 11:56:57;;;;;;;3.70;2.23;;;14.60;33.60;;;;;;5030921;28;20228;-49
2022/02/26 11:59:40;;;;;;;6.80;2.40;;;14.70;33.50;;;;;;5030429;28;20499;-45
2022/02/26 12:02:12;;;;;;;6.90;2.77;;;14.80;33.00;;;;;;5031399;28;20481;-47
2022/02/26 12:04:56;;;;;;;5.50;2.13;;;14.60;33.10;;;;;;5030646;28;20816;-45
2022/02/26 12:07:32;;;;;;;4.97;1.90;;;14.60;32.90;;;;;;5031248;28;20428;-50
2022/02/26 12:10:00;;;;;;;7.10;1.80;;;14.60;32.10;;;;;;5030294;28;20444;-45
2022/02/26 12:12:31;;;;;;;6.53;2.43;;;14.50;32.20;;;;;;5031225;28;20428;-51
2022/02/26 12:14:57;;;;;;;5.30;2.23;;;14.60;32.70;;;;;;5030688;28;20929;-50
2022/02/26 12:17:23;;;;;;;8.80;2.47;;;14.50;32.60;;;;;;5031102;28;20578;-46
2022/02/26 12:19:51;;;;;;;4.17;1.87;;;14.00;31.30;;;;;;5028169;28;20420;-48
2022/02/26 12:22:17;;;;;;;4.37;1.83;;;13.90;31.80;;;;;;5030651;28;20675;-50
2022/02/26 12:24:55;;;;;;;6.00;1.83;;;13.80;33.80;;;;;;5030323;28;20436;-49
2022/02/26 12:27:34;;;;;;;5.00;2.03;;;13.60;32.80;;;;;;5030798;28;20211;-45
2022/02/26 12:30:10;;;;;;;6.33;2.57;;;13.70;32.20;;;;;;5030011;28;20439;-47
2022/02/26 12:32:57;;;;;;;6.40;1.80;;;13.90;32.30;;;;;;5030444;28;20466;-48
2022/02/26 12:35:35;;;;;;;7.87;2.63;;;13.80;33.00;;;;;;5033756;28;20439;-48
2022/02/26 12:38:01;;;;;;;8.87;3.80;;;13.70;33.50;;;;;;5034311;28;20485;-46
2022/02/26 12:40:34;;;;;;;2.23;1.90;;;13.60;34.20;;;;;;5039465;28;20506;-48
2022/02/26 12:43:06;;;;;;;4.83;2.10;;;13.80;33.90;;;;;;5053802;28;20490;-49
2022/02/26 12:45:43;;;;;;;6.23;2.17;;;13.70;34.10;;;;;;5036473;28;20485;-46